This is the latest recevied weather packets stored in our database for station/object SA6BET-2. If no packets are shown the sender has not sent any weather packets the latest 10 day(s).
| Time | Temp. | Humidity | Pressure | Rain* | Wind** | Luminosity | Snow |
|---|---|---|---|---|---|---|---|
| 1777974570 | 23.33° C | 68% | 1015 hPa | - | - | - | - |
| 1777973670 | 23.89° C | 61% | 1014.7 hPa | - | - | - | - |
| 1777972771 | 23.89° C | 56% | 1014.8 hPa | - | - | - | - |
| 1777971868 | 25° C | 55% | 1014.8 hPa | - | - | - | - |
| 1777970968 | 22.78° C | 81% | 1014.9 hPa | - | - | - | - |
| 1777970071 | 23.33° C | 69% | 1015 hPa | - | - | - | - |
| 1777969168 | 22.78° C | 59% | 1015 hPa | - | - | - | - |
| 1777968267 | 21.67° C | 56% | 1014.9 hPa | - | - | - | - |
| 1777967378 | 21.11° C | 59% | 1014.9 hPa | - | - | - | - |
| 1777966478 | 20.56° C | 66% | 1014.9 hPa | - | - | - | - |
| 1777965578 | 19.44° C | 72% | 1014.8 hPa | - | - | - | - |
| 1777964669 | 18.89° C | 83% | 1014.7 hPa | - | - | - | - |
| 1777963770 | 18.33° C | 91% | 1014.7 hPa | - | - | - | - |
| 1777962878 | 17.78° C | 100% | 1014.8 hPa | - | - | - | - |
| 1777961966 | 17.22° C | 100% | 1014.7 hPa | - | - | - | - |
| 1777961077 | 16.67° C | 100% | 1014.8 hPa | - | - | - | - |
| 1777960171 | 16.67° C | 100% | 1014.7 hPa | - | - | - | - |
| 1777959265 | 16.11° C | 100% | 1014.5 hPa | - | - | - | - |
| 1777958371 | 16.11° C | 100% | 1014.3 hPa | - | - | - | - |
| 1777957468 | 16.11° C | 100% | 1014.2 hPa | - | - | - | - |
| 1777954763 | 16.67° C | 100% | 1014.2 hPa | - | - | - | - |
| 1777953868 | 16.67° C | 100% | 1014.2 hPa | - | - | - | - |
| 1777951162 | 16.67° C | 100% | 1014.1 hPa | - | - | - | - |
| 1777950262 | 16.67° C | 100% | 1014 hPa | - | - | - | - |
| 1777949362 | 17.22° C | 100% | 1014.2 hPa | - | - | - | - |
* Rain since midnight (hover to see other rain measurements)
** Current wind speed in m/s (hover to see current wind gust speed)